sensor_id;sensor_type;location;lat;lon;timestamp;pressure;altitude;pressure_sealevel;temperature;humidity
48622;BME280;34421;48.944;9.460;2023-05-01T00:00:59;98476.63;;;10.71;69.21
48622;BME280;34421;48.944;9.460;2023-05-01T00:03:25;98480.53;;;10.68;68.88
48622;BME280;34421;48.944;9.460;2023-05-01T00:05:50;98477.88;;;10.68;68.66
48622;BME280;34421;48.944;9.460;2023-05-01T00:08:16;98472.72;;;10.67;69.33
48622;BME280;34421;48.944;9.460;2023-05-01T00:10:41;98466.41;;;10.61;69.08
48622;BME280;34421;48.944;9.460;2023-05-01T00:13:07;98469.47;;;10.58;68.30
48622;BME280;34421;48.944;9.460;2023-05-01T00:15:33;98467.84;;;10.57;69.33
48622;BME280;34421;48.944;9.460;2023-05-01T00:17:59;98464.38;;;10.57;69.34
48622;BME280;34421;48.944;9.460;2023-05-01T00:20:28;98459.69;;;10.52;68.45
48622;BME280;34421;48.944;9.460;2023-05-01T00:22:54;98456.00;;;10.53;69.68
48622;BME280;34421;48.944;9.460;2023-05-01T00:25:19;98450.69;;;10.53;69.10
48622;BME280;34421;48.944;9.460;2023-05-01T00:27:45;98453.53;;;10.52;69.66
48622;BME280;34421;48.944;9.460;2023-05-01T00:30:11;98449.03;;;10.52;69.71
48622;BME280;34421;48.944;9.460;2023-05-01T00:32:36;98445.78;;;10.50;69.58
48622;BME280;34421;48.944;9.460;2023-05-01T00:35:02;98445.78;;;10.50;68.69
48622;BME280;34421;48.944;9.460;2023-05-01T00:37:28;98444.53;;;10.46;69.13
48622;BME280;34421;48.944;9.460;2023-05-01T00:39:53;98436.56;;;10.46;69.46
48622;BME280;34421;48.944;9.460;2023-05-01T00:42:19;98437.22;;;10.41;69.80
48622;BME280;34421;48.944;9.460;2023-05-01T00:44:44;98435.59;;;10.34;68.82
48622;BME280;34421;48.944;9.460;2023-05-01T00:47:10;98439.47;;;10.31;68.92
48622;BME280;34421;48.944;9.460;2023-05-01T00:49:35;98427.81;;;10.32;70.14
48622;BME280;34421;48.944;9.460;2023-05-01T00:52:01;98425.97;;;10.33;69.55
48622;BME280;34421;48.944;9.460;2023-05-01T00:54:27;98422.28;;;10.34;70.24
48622;BME280;34421;48.944;9.460;2023-05-01T00:56:53;98426.56;;;10.35;69.34
48622;BME280;34421;48.944;9.460;2023-05-01T00:59:19;98422.88;;;10.36;69.45
48622;BME280;34421;48.944;9.460;2023-05-01T01:01:45;98415.72;;;10.36;70.18
48622;BME280;34421;48.944;9.460;2023-05-01T01:04:11;98410.59;;;10.35;69.96
48622;BME280;34421;48.944;9.460;2023-05-01T01:07:00;98408.34;;;10.32;69.73
48622;BME280;34421;48.944;9.460;2023-05-01T01:09:35;98414.72;;;10.31;70.02
48622;BME280;34421;48.944;9.460;2023-05-01T01:14:57;98403.69;;;10.27;69.34
48622;BME280;34421;48.944;9.460;2023-05-01T01:22:39;98398.94;;;10.22;70.00
48622;BME280;34421;48.944;9.460;2023-05-01T01:28:19;98393.19;;;10.25;69.19
48622;BME280;34421;48.944;9.460;2023-05-01T01:31:12;98398.50;;;10.25;69.99
48622;BME280;34421;48.944;9.460;2023-05-01T01:34:07;98396.91;;;10.24;69.85
48622;BME280;34421;48.944;9.460;2023-05-01T01:36:42;98399.56;;;10.24;69.46
48622;BME280;34421;48.944;9.460;2023-05-01T01:39:29;98400.59;;;10.23;69.06
48622;BME280;34421;48.944;9.460;2023-05-01T01:42:05;98397.94;;;10.23;69.22
48622;BME280;34421;48.944;9.460;2023-05-01T01:44:39;98398.34;;;10.20;68.97
48622;BME280;34421;48.944;9.460;2023-05-01T01:47:07;98398.53;;;10.19;70.00
48622;BME280;34421;48.944;9.460;2023-05-01T01:49:37;98393.03;;;10.20;69.06
48622;BME280;34421;48.944;9.460;2023-05-01T01:52:05;98385.63;;;10.22;69.30
48622;BME280;34421;48.944;9.460;2023-05-01T01:54:36;98386.25;;;10.24;69.42
48622;BME280;34421;48.944;9.460;2023-05-01T01:57:03;98385.63;;;10.29;70.63
48622;BME280;34421;48.944;9.460;2023-05-01T01:59:32;98381.53;;;10.33;69.46
48622;BME280;34421;48.944;9.460;2023-05-01T02:01:59;98372.91;;;10.38;69.52
48622;BME280;34421;48.944;9.460;2023-05-01T02:04:26;98374.56;;;10.39;70.09
48622;BME280;34421;48.944;9.460;2023-05-01T02:06:54;98383.13;;;10.41;70.13
48622;BME280;34421;48.944;9.460;2023-05-01T02:09:22;98379.06;;;10.38;69.84
48622;BME280;34421;48.944;9.460;2023-05-01T02:11:49;98369.25;;;10.39;70.15
48622;BME280;34421;48.944;9.460;2023-05-01T02:14:17;98365.53;;;10.40;69.93
48622;BME280;34421;48.944;9.460;2023-05-01T02:16:42;98363.88;;;10.45;68.54
48622;BME280;34421;48.944;9.460;2023-05-01T02:19:09;98363.25;;;10.50;68.74
48622;BME280;34421;48.944;9.460;2023-05-01T02:21:35;98362.59;;;10.55;68.56
48622;BME280;34421;48.944;9.460;2023-05-01T02:24:02;98361.97;;;10.59;67.93
48622;BME280;34421;48.944;9.460;2023-05-01T02:26:30;98369.31;;;10.64;67.25
48622;BME280;34421;48.944;9.460;2023-05-01T02:28:57;98359.66;;;10.69;67.72
48622;BME280;34421;48.944;9.460;2023-05-01T02:31:23;98357.59;;;10.71;66.76
48622;BME280;34421;48.944;9.460;2023-05-01T02:33:48;98360.66;;;10.75;66.54
48622;BME280;34421;48.944;9.460;2023-05-01T02:36:14;98355.72;;;10.79;67.50
48622;BME280;34421;48.944;9.460;2023-05-01T02:38:40;98351.81;;;10.81;66.49
48622;BME280;34421;48.944;9.460;2023-05-01T02:41:07;98357.50;;;10.85;66.96
48622;BME280;34421;48.944;9.460;2023-05-01T02:43:34;98348.91;;;10.89;66.92
48622;BME280;34421;48.944;9.460;2023-05-01T02:46:01;98348.66;;;10.91;67.21
48622;BME280;34421;48.944;9.460;2023-05-01T02:48:29;98346.38;;;10.94;65.29
48622;BME280;34421;48.944;9.460;2023-05-01T02:50:57;98346.78;;;10.98;65.86
48622;BME280;34421;48.944;9.460;2023-05-01T02:53:22;98340.59;;;11.04;65.36
48622;BME280;34421;48.944;9.460;2023-05-01T02:55:49;98339.34;;;11.07;65.36
48622;BME280;34421;48.944;9.460;2023-05-01T02:58:18;98336.81;;;11.12;65.01
48622;BME280;34421;48.944;9.460;2023-05-01T03:00:44;98332.72;;;11.16;64.26
48622;BME280;34421;48.944;9.460;2023-05-01T03:03:11;98331.66;;;11.17;64.87
48622;BME280;34421;48.944;9.460;2023-05-01T03:05:37;98322.00;;;11.23;63.62
48622;BME280;34421;48.944;9.460;2023-05-01T03:08:03;98332.22;;;11.26;63.23
48622;BME280;34421;48.944;9.460;2023-05-01T03:10:28;98325.84;;;11.27;63.01
48622;BME280;34421;48.944;9.460;2023-05-01T03:12:53;98322.16;;;11.28;62.79
48622;BME280;34421;48.944;9.460;2023-05-01T03:15:19;98327.63;;;11.33;61.54
48622;BME280;34421;48.944;9.460;2023-05-01T03:17:44;98320.25;;;11.35;61.64
48622;BME280;34421;48.944;9.460;2023-05-01T03:20:10;98322.72;;;11.36;61.84
48622;BME280;34421;48.944;9.460;2023-05-01T03:22:35;98320.19;;;11.41;61.50
48622;BME280;34421;48.944;9.460;2023-05-01T03:25:01;98314.03;;;11.41;61.23
48622;BME280;34421;48.944;9.460;2023-05-01T03:27:28;98312.78;;;11.44;60.99
48622;BME280;34421;48.944;9.460;2023-05-01T03:29:54;98324.63;;;11.48;60.74
48622;BME280;34421;48.944;9.460;2023-05-01T03:32:20;98323.38;;;11.50;60.17
48622;BME280;34421;48.944;9.460;2023-05-01T03:34:45;98329.53;;;11.51;60.77
48622;BME280;34421;48.944;9.460;2023-05-01T03:37:10;98322.38;;;11.51;60.38
48622;BME280;34421;48.944;9.460;2023-05-01T03:39:36;98325.84;;;11.52;59.54
48622;BME280;34421;48.944;9.460;2023-05-01T03:42:01;98328.28;;;11.53;60.09
48622;BME280;34421;48.944;9.460;2023-05-01T03:44:26;98320.88;;;11.55;59.87
48622;BME280;34421;48.944;9.460;2023-05-01T03:46:52;98318.81;;;11.57;59.65
48622;BME280;34421;48.944;9.460;2023-05-01T03:49:17;98314.50;;;11.56;59.96
48622;BME280;34421;48.944;9.460;2023-05-01T03:51:42;98307.09;;;11.58;59.82
48622;BME280;34421;48.944;9.460;2023-05-01T03:54:08;98308.16;;;11.57;59.56
48622;BME280;34421;48.944;9.460;2023-05-01T03:56:34;98305.69;;;11.56;59.15
48622;BME280;34421;48.944;9.460;2023-05-01T03:59:00;98306.50;;;11.56;59.07
48622;BME280;34421;48.944;9.460;2023-05-01T04:01:25;98301.16;;;11.56;59.54
48622;BME280;34421;48.944;9.460;2023-05-01T04:03:51;98308.97;;;11.58;59.11
48622;BME280;34421;48.944;9.460;2023-05-01T04:06:17;98295.84;;;11.56;58.68
48622;BME280;34421;48.944;9.460;2023-05-01T04:08:43;98298.50;;;11.56;59.39
48622;BME280;34421;48.944;9.460;2023-05-01T04:11:08;98304.88;;;11.55;58.55
48622;BME280;34421;48.944;9.460;2023-05-01T04:13:33;98300.59;;;11.54;59.44
48622;BME280;34421;48.944;9.460;2023-05-01T04:15:59;98301.16;;;11.56;58.74
48622;BME280;34421;48.944;9.460;2023-05-01T04:18:24;98310.94;;;11.62;58.21
48622;BME280;34421;48.944;9.460;2023-05-01T04:20:50;98305.78;;;11.68;59.00
48622;BME280;34421;48.944;9.460;2023-05-01T04:23:15;98307.56;;;11.74;58.10
48622;BME280;34421;48.944;9.460;2023-05-01T04:25:41;98312.25;;;11.78;58.66
48622;BME280;34421;48.944;9.460;2023-05-01T04:28:06;98308.91;;;11.83;58.50
48622;BME280;34421;48.944;9.460;2023-05-01T04:30:31;98311.16;;;11.86;58.02
48622;BME280;34421;48.944;9.460;2023-05-01T04:32:57;98303.94;;;11.86;57.51
48622;BME280;34421;48.944;9.460;2023-05-01T04:35:23;98305.59;;;11.88;57.44
48622;BME280;34421;48.944;9.460;2023-05-01T04:37:49;98299.00;;;11.90;57.72
48622;BME280;34421;48.944;9.460;2023-05-01T04:40:15;98300.38;;;11.93;56.97
48622;BME280;34421;48.944;9.460;2023-05-01T04:42:40;98311.91;;;11.93;56.99
48622;BME280;34421;48.944;9.460;2023-05-01T04:45:06;98308.19;;;11.94;57.22
48622;BME280;34421;48.944;9.460;2023-05-01T04:47:32;98313.53;;;11.94;57.12
48622;BME280;34421;48.944;9.460;2023-05-01T04:49:57;98301.59;;;11.97;57.22
48622;BME280;34421;48.944;9.460;2023-05-01T04:52:22;98305.06;;;11.97;56.96
48622;BME280;34421;48.944;9.460;2023-05-01T04:54:48;98309.34;;;11.98;56.37
48622;BME280;34421;48.944;9.460;2023-05-01T04:57:13;98315.16;;;11.95;56.69
48622;BME280;34421;48.944;9.460;2023-05-01T04:59:39;98311.81;;;12.00;57.05
48622;BME280;34421;48.944;9.460;2023-05-01T05:02:04;98310.94;;;12.06;56.72
48622;BME280;34421;48.944;9.460;2023-05-01T05:04:29;98319.28;;;12.09;56.26
48622;BME280;34421;48.944;9.460;2023-05-01T05:06:55;98317.22;;;12.12;56.41
48622;BME280;34421;48.944;9.460;2023-05-01T05:09:20;98317.38;;;12.17;56.54
48622;BME280;34421;48.944;9.460;2023-05-01T05:11:46;98313.22;;;12.21;55.90
48622;BME280;34421;48.944;9.460;2023-05-01T05:14:11;98314.38;;;12.25;56.20
48622;BME280;34421;48.944;9.460;2023-05-01T05:16:36;98317.09;;;12.37;55.84
48622;BME280;34421;48.944;9.460;2023-05-01T05:19:02;98317.03;;;12.43;55.64
48622;BME280;34421;48.944;9.460;2023-05-01T05:21:27;98305.91;;;12.46;55.42
48622;BME280;34421;48.944;9.460;2023-05-01T05:23:52;98316.94;;;12.50;55.79
48622;BME280;34421;48.944;9.460;2023-05-01T05:26:18;98317.66;;;12.57;55.99
48622;BME280;34421;48.944;9.460;2023-05-01T05:28:43;98315.94;;;12.63;56.21
48622;BME280;34421;48.944;9.460;2023-05-01T05:31:09;98311.31;;;12.70;55.27
48622;BME280;34421;48.944;9.460;2023-05-01T05:33:34;98303.66;;;12.73;55.82
48622;BME280;34421;48.944;9.460;2023-05-01T05:36:00;98308.91;;;12.80;55.59
48622;BME280;34421;48.944;9.460;2023-05-01T05:38:25;98314.84;;;12.82;54.86
48622;BME280;34421;48.944;9.460;2023-05-01T05:40:51;98305.31;;;12.86;55.27
48622;BME280;34421;48.944;9.460;2023-05-01T05:43:18;98312.22;;;12.94;55.53
48622;BME280;34421;48.944;9.460;2023-05-01T05:45:43;98306.63;;;12.95;54.58
48622;BME280;34421;48.944;9.460;2023-05-01T05:48:09;98308.34;;;12.90;54.39
48622;BME280;34421;48.944;9.460;2023-05-01T05:50:34;98308.81;;;12.98;54.86
48622;BME280;34421;48.944;9.460;2023-05-01T05:52:59;98302.44;;;13.11;54.24
48622;BME280;34421;48.944;9.460;2023-05-01T05:55:25;98305.59;;;13.20;54.28
48622;BME280;34421;48.944;9.460;2023-05-01T05:57:50;98306.78;;;13.24;53.62
48622;BME280;34421;48.944;9.460;2023-05-01T06:00:16;98303.09;;;13.37;54.03
48622;BME280;34421;48.944;9.460;2023-05-01T06:02:41;98309.03;;;13.51;53.10
48622;BME280;34421;48.944;9.460;2023-05-01T06:05:07;98304.50;;;13.63;53.66
48622;BME280;34421;48.944;9.460;2023-05-01T06:07:34;98310.31;;;13.60;53.04
48622;BME280;34421;48.944;9.460;2023-05-01T06:10:00;98315.88;;;13.70;53.08
48622;BME280;34421;48.944;9.460;2023-05-01T06:12:31;98307.72;;;13.77;52.84
48622;BME280;34421;48.944;9.460;2023-05-01T06:14:57;98304.56;;;13.80;52.40
48622;BME280;34421;48.944;9.460;2023-05-01T06:17:23;98310.03;;;13.85;51.88
48622;BME280;34421;48.944;9.460;2023-05-01T06:19:49;98303.41;;;13.87;52.29
48622;BME280;34421;48.944;9.460;2023-05-01T06:22:16;98302.25;;;13.95;52.21
48622;BME280;34421;48.944;9.460;2023-05-01T06:24:42;98309.53;;;14.00;52.45
48622;BME280;34421;48.944;9.460;2023-05-01T06:27:07;98305.91;;;14.06;52.45
48622;BME280;34421;48.944;9.460;2023-05-01T06:29:32;98303.81;;;14.08;52.33
48622;BME280;34421;48.944;9.460;2023-05-01T06:31:57;98306.97;;;14.05;52.55
48622;BME280;34421;48.944;9.460;2023-05-01T06:34:23;98312.22;;;14.00;52.62
48622;BME280;34421;48.944;9.460;2023-05-01T06:36:48;98307.59;;;13.95;52.76
48622;BME280;34421;48.944;9.460;2023-05-01T06:39:13;98311.06;;;13.96;53.34
48622;BME280;34421;48.944;9.460;2023-05-01T06:41:39;98310.28;;;13.95;53.58
48622;BME280;34421;48.944;9.460;2023-05-01T06:44:04;98308.72;;;13.99;53.54
48622;BME280;34421;48.944;9.460;2023-05-01T06:46:29;98311.75;;;14.03;53.98
48622;BME280;34421;48.944;9.460;2023-05-01T06:48:55;98315.59;;;14.07;53.95
48622;BME280;34421;48.944;9.460;2023-05-01T06:51:20;98317.22;;;14.08;54.15
48622;BME280;34421;48.944;9.460;2023-05-01T06:53:45;98318.03;;;14.08;54.11
48622;BME280;34421;48.944;9.460;2023-05-01T06:56:11;98316.41;;;14.07;54.03
48622;BME280;34421;48.944;9.460;2023-05-01T06:58:36;98315.81;;;14.05;53.39
48622;BME280;34421;48.944;9.460;2023-05-01T07:01:01;98324.78;;;14.11;53.57
48622;BME280;34421;48.944;9.460;2023-05-01T07:03:27;98326.84;;;14.21;53.76
48622;BME280;34421;48.944;9.460;2023-05-01T07:05:53;98333.28;;;14.36;54.16
48622;BME280;34421;48.944;9.460;2023-05-01T07:08:19;98329.44;;;14.56;53.26
48622;BME280;34421;48.944;9.460;2023-05-01T07:10:44;98332.38;;;14.71;53.39
48622;BME280;34421;48.944;9.460;2023-05-01T07:13:10;98329.91;;;14.81;53.41
48622;BME280;34421;48.944;9.460;2023-05-01T07:15:35;98330.66;;;14.94;53.53
48622;BME280;34421;48.944;9.460;2023-05-01T07:18:01;98328.72;;;15.06;53.60
48622;BME280;34421;48.944;9.460;2023-05-01T07:20:30;98333.19;;;15.17;53.95
48622;BME280;34421;48.944;9.460;2023-05-01T07:22:55;98342.69;;;15.25;53.26
48622;BME280;34421;48.944;9.460;2023-05-01T07:25:21;98338.22;;;15.31;52.22
48622;BME280;34421;48.944;9.460;2023-05-01T07:27:46;98338.06;;;15.37;52.56
48622;BME280;34421;48.944;9.460;2023-05-01T07:30:11;98333.34;;;15.44;52.13
48622;BME280;34421;48.944;9.460;2023-05-01T07:32:37;98329.91;;;15.49;52.45
48622;BME280;34421;48.944;9.460;2023-05-01T07:35:02;98333.25;;;15.56;51.74
48622;BME280;34421;48.944;9.460;2023-05-01T07:37:28;98329.09;;;15.65;51.43
48622;BME280;34421;48.944;9.460;2023-05-01T07:39:53;98329.03;;;15.77;51.24
48622;BME280;34421;48.944;9.460;2023-05-01T07:42:20;98328.34;;;15.87;50.94
48622;BME280;34421;48.944;9.460;2023-05-01T07:44:45;98319.56;;;15.91;50.89
48622;BME280;34421;48.944;9.460;2023-05-01T07:47:10;98337.09;;;15.99;50.86
48622;BME280;34421;48.944;9.460;2023-05-01T07:49:37;98332.38;;;16.06;50.93
48622;BME280;34421;48.944;9.460;2023-05-01T07:52:03;98335.59;;;16.08;50.79
48622;BME280;34421;48.944;9.460;2023-05-01T07:54:29;98325.44;;;16.10;50.54
48622;BME280;34421;48.944;9.460;2023-05-01T07:56:55;98321.63;;;16.06;49.81
48622;BME280;34421;48.944;9.460;2023-05-01T07:59:20;98328.97;;;15.94;49.15
48622;BME280;34421;48.944;9.460;2023-05-01T08:01:46;98328.97;;;15.94;49.19
48622;BME280;34421;48.944;9.460;2023-05-01T08:04:12;98332.22;;;15.96;48.82
48622;BME280;34421;48.944;9.460;2023-05-01T08:06:38;98328.53;;;15.80;49.31
48622;BME280;34421;48.944;9.460;2023-05-01T08:09:04;98330.53;;;15.90;48.62
48622;BME280;34421;48.944;9.460;2023-05-01T08:11:30;98331.34;;;15.90;48.59
48622;BME280;34421;48.944;9.460;2023-05-01T08:13:57;98331.41;;;15.95;48.36
48622;BME280;34421;48.944;9.460;2023-05-01T08:16:23;98335.97;;;15.95;48.08
48622;BME280;34421;48.944;9.460;2023-05-01T08:18:48;98333.09;;;16.02;47.94
48622;BME280;34421;48.944;9.460;2023-05-01T08:21:13;98332.91;;;16.08;48.02
48622;BME280;34421;48.944;9.460;2023-05-01T08:23:38;98327.84;;;16.12;48.66
48622;BME280;34421;48.944;9.460;2023-05-01T08:26:04;98324.56;;;16.05;48.26
48622;BME280;34421;48.944;9.460;2023-05-01T08:28:29;98332.50;;;16.16;48.31
48622;BME280;34421;48.944;9.460;2023-05-01T08:30:54;98332.94;;;16.30;48.65
48622;BME280;34421;48.944;9.460;2023-05-01T08:33:20;98327.13;;;16.16;47.92
48622;BME280;34421;48.944;9.460;2023-05-01T08:35:45;98321.72;;;16.38;47.54
48622;BME280;34421;48.944;9.460;2023-05-01T08:38:11;98320.19;;;16.70;47.49
48622;BME280;34421;48.944;9.460;2023-05-01T08:40:37;98320.22;;;16.97;47.09
48622;BME280;34421;48.944;9.460;2023-05-01T08:43:03;98320.91;;;17.14;47.28
48622;BME280;34421;48.944;9.460;2023-05-01T08:45:32;98315.22;;;17.11;46.82
48622;BME280;34421;48.944;9.460;2023-05-01T08:48:04;98315.13;;;17.00;46.84
48622;BME280;34421;48.944;9.460;2023-05-01T08:50:30;98317.75;;;16.90;47.05
48622;BME280;34421;48.944;9.460;2023-05-01T08:52:58;98316.56;;;16.81;47.33
48622;BME280;34421;48.944;9.460;2023-05-01T08:55:24;98322.31;;;16.68;47.43
48622;BME280;34421;48.944;9.460;2023-05-01T08:57:50;98316.63;;;16.64;47.46
48622;BME280;34421;48.944;9.460;2023-05-01T09:00:18;98312.00;;;16.81;46.87
48622;BME280;34421;48.944;9.460;2023-05-01T09:02:45;98316.88;;;16.84;47.12
48622;BME280;34421;48.944;9.460;2023-05-01T09:05:12;98312.31;;;16.85;46.60
48622;BME280;34421;48.944;9.460;2023-05-01T09:07:37;98316.59;;;16.86;46.42
48622;BME280;34421;48.944;9.460;2023-05-01T09:10:03;98310.88;;;17.04;46.25
48622;BME280;34421;48.944;9.460;2023-05-01T09:12:29;98315.25;;;17.16;46.69
48622;BME280;34421;48.944;9.460;2023-05-01T09:14:55;98320.31;;;17.44;46.32
48622;BME280;34421;48.944;9.460;2023-05-01T09:17:22;98313.59;;;17.79;45.77
48622;BME280;34421;48.944;9.460;2023-05-01T09:19:51;98321.25;;;18.03;45.34
48622;BME280;34421;48.944;9.460;2023-05-01T09:22:17;98315.66;;;18.19;44.39
48622;BME280;34421;48.944;9.460;2023-05-01T09:24:44;98323.50;;;18.31;44.41
48622;BME280;34421;48.944;9.460;2023-05-01T09:27:11;98322.44;;;18.32;44.66
48622;BME280;34421;48.944;9.460;2023-05-01T09:29:38;98327.31;;;18.35;44.65
48622;BME280;34421;48.944;9.460;2023-05-01T09:32:20;98327.94;;;18.68;43.95
48622;BME280;34421;48.944;9.460;2023-05-01T09:34:47;98329.34;;;18.91;44.00
48622;BME280;34421;48.944;9.460;2023-05-01T09:37:24;98320.19;;;19.23;42.46
48622;BME280;34421;48.944;9.460;2023-05-01T09:42:35;98325.22;;;20.06;41.27
48622;BME280;34421;48.944;9.460;2023-05-01T09:45:04;98325.09;;;20.37;40.85
48622;BME280;34421;48.944;9.460;2023-05-01T09:47:30;98329.00;;;20.70;40.08
48622;BME280;34421;48.944;9.460;2023-05-01T09:49:56;98324.56;;;21.24;39.91
48622;BME280;34421;48.944;9.460;2023-05-01T09:52:29;98324.31;;;21.83;39.11
48622;BME280;34421;48.944;9.460;2023-05-01T09:55:11;98324.56;;;22.35;38.69
48622;BME280;34421;48.944;9.460;2023-05-01T09:57:38;98314.25;;;22.94;37.29
48622;BME280;34421;48.944;9.460;2023-05-01T10:00:04;98315.94;;;24.29;35.10
48622;BME280;34421;48.944;9.460;2023-05-01T10:02:34;98312.25;;;24.75;33.90
48622;BME280;34421;48.944;9.460;2023-05-01T10:05:00;98306.88;;;25.20;33.52
48622;BME280;34421;48.944;9.460;2023-05-01T10:07:26;98306.47;;;25.58;33.00
48622;BME280;34421;48.944;9.460;2023-05-01T10:09:52;98298.00;;;25.68;32.47
48622;BME280;34421;48.944;9.460;2023-05-01T10:12:28;98305.06;;;25.38;33.40
48622;BME280;34421;48.944;9.460;2023-05-01T10:14:56;98306.06;;;25.20;32.43
48622;BME280;34421;48.944;9.460;2023-05-01T10:17:22;98301.94;;;25.22;32.20
48622;BME280;34421;48.944;9.460;2023-05-01T10:19:48;98305.97;;;25.34;31.88
48622;BME280;34421;48.944;9.460;2023-05-01T10:22:15;98300.00;;;25.54;32.40
48622;BME280;34421;48.944;9.460;2023-05-01T10:24:42;98296.28;;;25.81;32.02
48622;BME280;34421;48.944;9.460;2023-05-01T10:27:08;98300.13;;;26.11;31.65
48622;BME280;34421;48.944;9.460;2023-05-01T10:29:35;98305.06;;;26.49;31.62
48622;BME280;34421;48.944;9.460;2023-05-01T10:32:04;98306.84;;;27.06;31.02
48622;BME280;34421;48.944;9.460;2023-05-01T10:34:36;98304.47;;;27.69;29.93
48622;BME280;34421;48.944;9.460;2023-05-01T10:37:14;98301.47;;;28.09;29.05
48622;BME280;34421;48.944;9.460;2023-05-01T10:39:42;98305.97;;;28.05;28.79
48622;BME280;34421;48.944;9.460;2023-05-01T10:42:09;98297.50;;;27.98;28.38
48622;BME280;34421;48.944;9.460;2023-05-01T10:44:42;98299.28;;;27.93;28.14
48622;BME280;34421;48.944;9.460;2023-05-01T10:50:12;98289.19;;;27.85;28.92
48622;BME280;34421;48.944;9.460;2023-05-01T10:55:39;98280.41;;;28.30;28.38
48622;BME280;34421;48.944;9.460;2023-05-01T10:58:07;98274.44;;;28.79;27.18
48622;BME280;34421;48.944;9.460;2023-05-01T11:00:32;98273.50;;;28.96;26.76
48622;BME280;34421;48.944;9.460;2023-05-01T11:10:55;98280.69;;;27.69;27.98
48622;BME280;34421;48.944;9.460;2023-05-01T11:19:10;98274.88;;;26.54;29.99
48622;BME280;34421;48.944;9.460;2023-05-01T11:21:37;98267.28;;;26.34;30.37
48622;BME280;34421;48.944;9.460;2023-05-01T11:24:08;98268.84;;;26.26;29.83
48622;BME280;34421;48.944;9.460;2023-05-01T11:26:37;98259.50;;;26.01;30.54
48622;BME280;34421;48.944;9.460;2023-05-01T11:29:04;98272.56;;;25.82;30.76
48622;BME280;34421;48.944;9.460;2023-05-01T11:31:30;98257.31;;;25.81;30.04
48622;BME280;34421;48.944;9.460;2023-05-01T11:33:59;98265.25;;;25.91;29.63
48622;BME280;34421;48.944;9.460;2023-05-01T11:36:26;98257.06;;;26.00;29.76
48622;BME280;34421;48.944;9.460;2023-05-01T11:38:56;98263.50;;;25.95;31.09
48622;BME280;34421;48.944;9.460;2023-05-01T11:41:23;98255.28;;;25.86;30.92
48622;BME280;34421;48.944;9.460;2023-05-01T11:43:49;98249.59;;;25.74;30.77
48622;BME280;34421;48.944;9.460;2023-05-01T11:46:25;98252.25;;;25.57;30.75
48622;BME280;34421;48.944;9.460;2023-05-01T11:48:58;98252.09;;;25.31;31.77
48622;BME280;34421;48.944;9.460;2023-05-01T11:51:24;98257.75;;;24.89;32.36
48622;BME280;34421;48.944;9.460;2023-05-01T11:54:00;98258.56;;;24.53;32.99
48622;BME280;34421;48.944;9.460;2023-05-01T11:56:26;98250.66;;;24.29;33.25
48622;BME280;34421;48.944;9.460;2023-05-01T11:58:55;98254.91;;;23.94;33.94
48622;BME280;34421;48.944;9.460;2023-05-01T12:01:32;98251.81;;;23.87;34.27
48622;BME280;34421;48.944;9.460;2023-05-01T12:03:58;98255.31;;;23.87;34.13
48622;BME280;34421;48.944;9.460;2023-05-01T12:06:37;98254.81;;;23.85;34.02
48622;BME280;34421;48.944;9.460;2023-05-01T12:09:05;98243.25;;;23.94;33.72
48622;BME280;34421;48.944;9.460;2023-05-01T12:11:32;98247.66;;;24.03;34.04
48622;BME280;34421;48.944;9.460;2023-05-01T12:13:58;98250.59;;;24.07;33.33
48622;BME280;34421;48.944;9.460;2023-05-01T12:16:24;98246.66;;;23.99;33.76
48622;BME280;34421;48.944;9.460;2023-05-01T12:18:49;98245.66;;;23.95;33.55
48622;BME280;34421;48.944;9.460;2023-05-01T12:21:15;98245.47;;;23.92;33.33
48622;BME280;34421;48.944;9.460;2023-05-01T12:23:44;98247.16;;;23.87;33.40
48622;BME280;34421;48.944;9.460;2023-05-01T12:26:19;98250.91;;;23.92;33.46
48622;BME280;34421;48.944;9.460;2023-05-01T12:29:02;98248.50;;;23.90;33.58
48622;BME280;34421;48.944;9.460;2023-05-01T12:31:29;98250.41;;;23.90;33.06
48622;BME280;34421;48.944;9.460;2023-05-01T12:33:56;98256.34;;;23.78;32.84
48622;BME280;34421;48.944;9.460;2023-05-01T12:36:22;98258.31;;;23.58;32.99
48622;BME280;34421;48.944;9.460;2023-05-01T12:39:01;98256.59;;;23.49;33.18
48622;BME280;34421;48.944;9.460;2023-05-01T12:41:51;98257.88;;;23.37;33.33
48622;BME280;34421;48.944;9.460;2023-05-01T12:44:19;98247.31;;;23.50;33.76
48622;BME280;34421;48.944;9.460;2023-05-01T12:46:52;98250.41;;;23.76;33.50
48622;BME280;34421;48.944;9.460;2023-05-01T12:49:19;98247.13;;;24.15;33.14
48622;BME280;34421;48.944;9.460;2023-05-01T12:51:49;98244.19;;;24.39;32.40
48622;BME280;34421;48.944;9.460;2023-05-01T12:54:27;98238.06;;;24.70;32.22
48622;BME280;34421;48.944;9.460;2023-05-01T12:57:07;98239.00;;;24.88;31.53
48622;BME280;34421;48.944;9.460;2023-05-01T12:59:35;98243.94;;;24.63;32.33
48622;BME280;34421;48.944;9.460;2023-05-01T13:02:02;98243.13;;;24.63;32.29
48622;BME280;34421;48.944;9.460;2023-05-01T13:04:28;98236.31;;;24.51;32.23
48622;BME280;34421;48.944;9.460;2023-05-01T13:06:55;98240.75;;;24.47;32.79
48622;BME280;34421;48.944;9.460;2023-05-01T13:09:25;98239.97;;;24.47;32.54
48622;BME280;34421;48.944;9.460;2023-05-01T13:12:00;98233.72;;;24.46;32.30
48622;BME280;34421;48.944;9.460;2023-05-01T13:14:28;98231.69;;;24.38;32.85
48622;BME280;34421;48.944;9.460;2023-05-01T13:16:55;98234.28;;;24.07;33.57
48622;BME280;34421;48.944;9.460;2023-05-01T13:19:27;98230.44;;;24.08;33.64
48622;BME280;34421;48.944;9.460;2023-05-01T13:21:56;98232.09;;;24.31;33.04
48622;BME280;34421;48.944;9.460;2023-05-01T13:24:41;98237.38;;;24.28;33.63
48622;BME280;34421;48.944;9.460;2023-05-01T13:27:12;98228.22;;;24.10;33.69
48622;BME280;34421;48.944;9.460;2023-05-01T13:29:38;98226.00;;;24.12;32.96
48622;BME280;34421;48.944;9.460;2023-05-01T13:32:04;98224.38;;;24.11;33.61
48622;BME280;34421;48.944;9.460;2023-05-01T13:34:31;98225.31;;;23.93;33.75